Time;durP1;ratioP1;P1;durP2;ratioP2;P2;SDS_P1;SDS_P2;PMS_P1;PMS_P2;Temp;Humidity;BMP_temperature;BMP_pressure;BME280_temperature;BME280_humidity;BME280_pressure;Samples;Min_cycle;Max_cycle;Signal;HPM_P1;HPM_P2
2020/01/12 00:01:09;;;;;;;24.3;16.8;;;;;;;2.28;72.08984;972.9754;;;;
2020/01/12 00:03:34;;;;;;;24.4;17.1;;;;;;;2.25;71.76367;972.9735;;;;
2020/01/12 00:05:59;;;;;;;22.8;17;;;;;;;2.21;71.75586;972.9381;;;;
2020/01/12 00:08:24;;;;;;;24.6;17.8;;;;;;;2.23;71.89844;972.8549;;;;
2020/01/12 00:10:49;;;;;;;23.5;17.5;;;;;;;2.21;71.71191;972.8627;;;;
2020/01/12 00:13:14;;;;;;;23.5;18.3;;;;;;;2.14;72.18066;972.847;;;;
2020/01/12 00:15:42;;;;;;;25.2;19;;;;;;;2.29;72.36719;972.8116;;;;
2020/01/12 00:18:05;;;;;;;28.2;20.9;;;;;;;2.33;72.11035;972.798;;;;
2020/01/12 00:20:30;;;;;;;28.6;19.8;;;;;;;2.21;72.48047;972.7664;;;;
2020/01/12 00:22:55;;;;;;;27.7;20;;;;;;;2.18;72.52344;972.7299;;;;
2020/01/12 00:25:20;;;;;;;27.1;19;;;;;;;2.12;72.8916;972.7484;;;;
2020/01/12 00:30:10;;;;;;;27.1;19.1;;;;;;;2.12;72.8457;972.7853;;;;
2020/01/12 00:32:35;;;;;;;23.7;18.5;;;;;;;2.1;72.3584;972.7392;;;;
2020/01/12 00:35:01;;;;;;;23.7;17.5;;;;;;;2.14;72.01953;972.7314;;;;
2020/01/12 00:37:26;;;;;;;23.6;18.1;;;;;;;2.16;72.28906;972.731;;;;
2020/01/12 00:39:51;;;;;;;24.2;17.9;;;;;;;2.19;71.86816;972.6705;;;;
2020/01/12 00:42:16;;;;;;;54.6;34.9;;;;;;;2.18;72.77441;972.6384;;;;
2020/01/12 00:44:41;;;;;;;62.8;35.9;;;;;;;2.01;72.43555;972.6267;;;;
2020/01/12 00:47:07;;;;;;;52.9;31.2;;;;;;;1.99;72.5127;972.603;;;;
2020/01/12 00:49:32;;;;;;;51.2;30.5;;;;;;;1.99;72.45605;972.6055;;;;
2020/01/12 00:51:57;;;;;;;38.1;25.4;;;;;;;2.08;72.22949;972.6462;;;;
2020/01/12 00:54:22;;;;;;;36.5;23;;;;;;;2.05;72.40723;972.6253;;;;
2020/01/12 00:56:47;;;;;;;27.5;20.5;;;;;;;2.11;72.31543;972.6172;;;;
2020/01/12 00:59:12;;;;;;;28.1;20.3;;;;;;;2.16;72.2998;972.6418;;;;
2020/01/12 01:01:38;;;;;;;25.8;19.8;;;;;;;2.15;72.57617;972.6403;;;;
2020/01/12 01:04:03;;;;;;;28.3;19.9;;;;;;;2.07;72.89453;972.5464;;;;
2020/01/12 01:06:28;;;;;;;25.3;19.5;;;;;;;1.93;74.58203;972.5268;;;;
2020/01/12 01:08:54;;;;;;;26;19.3;;;;;;;1.89;74.68848;972.5198;;;;
2020/01/12 01:11:19;;;;;;;24.5;18.9;;;;;;;1.91;74.38281;972.4398;;;;
2020/01/12 01:13:44;;;;;;;26;19.1;;;;;;;1.89;74.43555;972.4095;;;;
2020/01/12 01:16:09;;;;;;;24.5;18.4;;;;;;;1.91;74.25684;972.4166;;;;
2020/01/12 01:18:34;;;;;;;25.2;18.9;;;;;;;1.97;73.59961;972.4572;;;;
2020/01/12 01:20:59;;;;;;;23.7;18.3;;;;;;;1.97;73.93262;972.4612;;;;
2020/01/12 01:23:24;;;;;;;28.4;20.1;;;;;;;2.02;74.51855;972.4124;;;;
2020/01/12 01:25:49;;;;;;;28.4;20.8;;;;;;;1.93;75.06445;972.4073;;;;
2020/01/12 01:28:14;;;;;;;25.5;19.2;;;;;;;1.95;74.51563;972.4512;;;;
2020/01/12 01:30:39;;;;;;;24.5;17.9;;;;;;;1.92;73.5918;972.3884;;;;
2020/01/12 01:33:05;;;;;;;25.1;18.7;;;;;;;1.96;73.32422;972.4191;;;;
2020/01/12 01:35:30;;;;;;;26.7;19;;;;;;;1.89;73.18457;972.3967;;;;
2020/01/12 01:37:55;;;;;;;24.1;17.5;;;;;;;1.89;73.16113;972.4272;;;;
2020/01/12 01:40:20;;;;;;;23.8;18.6;;;;;;;1.87;72.76563;972.3835;;;;
2020/01/12 01:42:45;;;;;;;25.3;18.5;;;;;;;1.83;72.92188;972.4058;;;;
2020/01/12 01:45:11;;;;;;;25.3;18.7;;;;;;;1.79;73.34961;972.4185;;;;
2020/01/12 01:47:35;;;;;;;24.4;18.6;;;;;;;1.74;73.41211;972.3582;;;;
2020/01/12 01:50:00;;;;;;;23.9;18.4;;;;;;;1.73;73.39746;972.3393;;;;
2020/01/12 01:52:26;;;;;;;26.8;18.9;;;;;;;1.72;73.53418;972.3417;;;;
2020/01/12 01:54:51;;;;;;;24;17.8;;;;;;;1.79;73.27051;972.3293;;;;
2020/01/12 01:57:16;;;;;;;22.6;16.8;;;;;;;1.69;72.79492;972.3158;;;;
2020/01/12 01:59:41;;;;;;;21.8;17.4;;;;;;;1.58;72.57031;972.2639;;;;
2020/01/12 02:02:06;;;;;;;21.8;17.4;;;;;;;1.51;72.93555;972.2502;;;;
2020/01/12 02:04:49;;;;;;;23.4;17.5;;;;;;;1.54;73.29688;972.2395;;;;
2020/01/12 02:06:57;;;;;;;25.6;18.3;;;;;;;1.56;72.9541;972.2144;;;;
2020/01/12 02:09:22;;;;;;;23.2;17.6;;;;;;;1.5;72.54395;972.2667;;;;
2020/01/12 02:12:17;;;;;;;23.1;17.4;;;;;;;1.51;72.33691;972.2281;;;;
2020/01/12 02:14:33;;;;;;;25;19;;;;;;;1.41;73.88184;972.2158;;;;
2020/01/12 02:16:49;;;;;;;26;19.7;;;;;;;1.46;73.60254;972.2424;;;;
2020/01/12 02:19:03;;;;;;;27.4;20.1;;;;;;;1.41;73.57227;972.166;;;;
2020/01/12 02:21:28;;;;;;;26.9;20.6;;;;;;;1.25;73.96875;972.0801;;;;
2020/01/12 02:26:26;;;;;;;26.7;19.7;;;;;;;1.42;73.95215;972.1211;;;;
2020/01/12 02:28:51;;;;;;;25.3;19.4;;;;;;;1.42;74.15918;972.0625;;;;
2020/01/12 02:31:16;;;;;;;26.9;19.6;;;;;;;1.47;73.45703;972.0242;;;;
2020/01/12 02:33:41;;;;;;;25.4;19.5;;;;;;;1.49;73.88477;972.0662;;;;
2020/01/12 02:36:06;;;;;;;25.2;20;;;;;;;1.41;73.9873;972.0739;;;;
2020/01/12 02:38:31;;;;;;;24.2;19.5;;;;;;;1.34;74.36328;972.0813;;;;
2020/01/12 02:40:56;;;;;;;24.4;19.7;;;;;;;1.44;73.99121;972.1431;;;;
2020/01/12 02:43:21;;;;;;;23.6;19;;;;;;;1.45;74.00488;972.1277;;;;
2020/01/12 02:45:47;;;;;;;22.2;18.3;;;;;;;1.44;73.88672;972.0252;;;;
2020/01/12 02:48:12;;;;;;;22.4;18.9;;;;;;;1.41;73.75586;971.9881;;;;
2020/01/12 02:50:37;;;;;;;21.1;18.1;;;;;;;1.31;74.27637;972.0178;;;;
2020/01/12 02:53:02;;;;;;;22.6;18.1;;;;;;;1.33;74.39551;971.9243;;;;
2020/01/12 02:55:27;;;;;;;25;20.7;;;;;;;1.12;74.97754;971.9009;;;;
2020/01/12 02:57:52;;;;;;;24.9;20.2;;;;;;;1.02;75.8877;971.8801;;;;
2020/01/12 03:00:17;;;;;;;24.2;19.1;;;;;;;1.18;75.49316;971.9185;;;;
2020/01/12 03:02:42;;;;;;;24.4;19;;;;;;;1.1;75.63965;971.8699;;;;
2020/01/12 03:05:08;;;;;;;21.4;18.2;;;;;;;1.14;75.44141;971.8998;;;;
2020/01/12 03:07:35;;;;;;;22.7;18.9;;;;;;;1.16;75.29395;971.8661;;;;
2020/01/12 03:09:58;;;;;;;25.8;21.4;;;;;;;0.95;76.65625;971.7783;;;;
2020/01/12 03:12:23;;;;;;;24.3;20.7;;;;;;;0.85;77.4502;971.8342;;;;
2020/01/12 03:14:48;;;;;;;22.3;19;;;;;;;1;76.84863;971.8209;;;;
2020/01/12 03:17:13;;;;;;;24.9;20.8;;;;;;;0.98;77.26855;971.7789;;;;
2020/01/12 03:19:38;;;;;;;21.8;19;;;;;;;1.02;77.33301;971.7556;;;;
2020/01/12 03:22:03;;;;;;;24.7;20.1;;;;;;;1.02;77.20605;971.7383;;;;
2020/01/12 03:24:28;;;;;;;26.1;20.5;;;;;;;0.96;77.34473;971.7205;;;;
2020/01/12 03:26:53;;;;;;;23.6;19.3;;;;;;;1.04;76.62402;971.7074;;;;
2020/01/12 03:29:18;;;;;;;24.1;20.3;;;;;;;1.13;76.17383;971.7195;;;;
2020/01/12 03:34:08;;;;;;;21.3;18.3;;;;;;;1.21;75.02832;971.6912;;;;
2020/01/12 03:36:34;;;;;;;22.5;18.4;;;;;;;1.34;74.2832;971.6621;;;;
2020/01/12 03:38:59;;;;;;;22.8;18.7;;;;;;;1.19;74.37305;971.6275;;;;
2020/01/12 03:41:24;;;;;;;24.1;19.3;;;;;;;1.17;74.64355;971.6072;;;;
2020/01/12 03:43:49;;;;;;;23.1;19.2;;;;;;;1.2;74.73926;971.5481;;;;
2020/01/12 03:46:15;;;;;;;23.1;18.7;;;;;;;1.24;74.5166;971.5251;;;;
2020/01/12 03:48:41;;;;;;;21.6;18.2;;;;;;;1.15;73.87012;971.5303;;;;
2020/01/12 03:51:06;;;;;;;24.2;18.8;;;;;;;1.16;74.49121;971.5623;;;;
2020/01/12 03:53:31;;;;;;;21.2;17.7;;;;;;;1.22;73.99902;971.5446;;;;
2020/01/12 03:55:56;;;;;;;22.8;18.1;;;;;;;1.29;74.19336;971.537;;;;
2020/01/12 03:58:21;;;;;;;21.5;18.1;;;;;;;1.3;73.88477;971.4953;;;;
2020/01/12 04:02:26;;;;;;;21.9;17.9;;;;;;;1.23;74.24023;971.3538;;;;
2020/01/12 04:04:51;;;;;;;24.3;19.2;;;;;;;1.2;74.24707;971.3558;;;;
2020/01/12 04:07:16;;;;;;;21.9;18.1;;;;;;;1.13;74.41797;971.3105;;;;
2020/01/12 04:09:41;;;;;;;23.5;18.8;;;;;;;1.22;74.11328;971.3313;;;;
2020/01/12 04:12:07;;;;;;;22.1;18.3;;;;;;;1.26;74.06055;971.2971;;;;
2020/01/12 04:14:32;;;;;;;21.9;18.4;;;;;;;1.27;73.92676;971.2394;;;;
2020/01/12 04:16:57;;;;;;;22.9;19.2;;;;;;;1.17;74.12695;971.2559;;;;
2020/01/12 04:19:22;;;;;;;22.9;18.7;;;;;;;1.25;73.95801;971.2491;;;;
2020/01/12 04:21:47;;;;;;;22.4;18.1;;;;;;;1.26;73.83301;971.2842;;;;
2020/01/12 04:24:12;;;;;;;22.8;18.4;;;;;;;1.25;73.83203;971.2659;;;;
2020/01/12 04:26:37;;;;;;;22.5;18.2;;;;;;;1.33;74.00586;971.2935;;;;
2020/01/12 04:29:02;;;;;;;22.4;18.5;;;;;;;1.16;74.10156;971.278;;;;
2020/01/12 04:31:27;;;;;;;23.3;18.9;;;;;;;1.3;73.57715;971.3574;;;;
2020/01/12 04:33:52;;;;;;;21.8;17.9;;;;;;;1.24;73.71582;971.3231;;;;
2020/01/12 04:36:17;;;;;;;20.8;17.8;;;;;;;1.29;74.04395;971.2974;;;;
2020/01/12 04:38:42;;;;;;;24.9;19.8;;;;;;;1.33;73.90234;971.32;;;;
2020/01/12 04:41:07;;;;;;;24.8;19.7;;;;;;;1.33;73.57031;971.3825;;;;
2020/01/12 04:43:32;;;;;;;25.1;19.9;;;;;;;1.41;73.52637;971.3812;;;;
2020/01/12 04:45:58;;;;;;;25.1;19.8;;;;;;;1.27;74.01855;971.3524;;;;
2020/01/12 04:48:23;;;;;;;23;18.7;;;;;;;1.07;74.32715;971.3745;;;;
2020/01/12 04:50:48;;;;;;;21.4;17.7;;;;;;;1.07;74.15332;971.3256;;;;
2020/01/12 04:53:13;;;;;;;26;20.9;;;;;;;1.18;74.53027;971.3488;;;;
2020/01/12 04:55:38;;;;;;;21.8;18.2;;;;;;;1.06;74.55469;971.3569;;;;
2020/01/12 04:58:03;;;;;;;21.6;17.6;;;;;;;1.06;74.2334;971.3649;;;;
2020/01/12 05:00:28;;;;;;;24.7;19.7;;;;;;;1.03;74.91699;971.3278;;;;
2020/01/12 05:02:53;;;;;;;23.1;18.3;;;;;;;1.08;74.53418;971.3367;;;;
2020/01/12 05:05:18;;;;;;;22;18.4;;;;;;;1.04;74.12598;971.2981;;;;
2020/01/12 05:07:43;;;;;;;21.2;17.8;;;;;;;0.93;73.5918;971.2981;;;;
2020/01/12 05:10:09;;;;;;;22;18.1;;;;;;;0.93;73.9707;971.2844;;;;
2020/01/12 05:12:34;;;;;;;20.6;17.5;;;;;;;0.98;73.97852;971.2667;;;;
2020/01/12 05:14:59;;;;;;;21.4;18;;;;;;;0.9;74.24023;971.2385;;;;
2020/01/12 05:17:24;;;;;;;21;17.5;;;;;;;0.83;74.10156;971.177;;;;
2020/01/12 05:19:49;;;;;;;22.3;18.4;;;;;;;0.95;73.51563;971.1824;;;;
2020/01/12 05:22:14;;;;;;;24;18.2;;;;;;;0.85;74.35547;971.1806;;;;
2020/01/12 05:24:39;;;;;;;21.8;18.2;;;;;;;0.85;74.7002;971.2062;;;;
2020/01/12 05:27:04;;;;;;;22.6;18.1;;;;;;;0.93;73.86621;971.1852;;;;
2020/01/12 05:29:29;;;;;;;22.6;18.4;;;;;;;0.83;74.34375;971.2664;;;;
2020/01/12 05:31:54;;;;;;;21;17.2;;;;;;;0.9;74.14648;971.2346;;;;
2020/01/12 05:34:19;;;;;;;21.7;18;;;;;;;0.7;74.16992;971.2172;;;;
2020/01/12 05:36:44;;;;;;;20.9;17.4;;;;;;;0.73;74.48535;971.1775;;;;
2020/01/12 05:39:10;;;;;;;21;17.8;;;;;;;0.73;74.47363;971.1878;;;;
2020/01/12 05:41:35;;;;;;;22.7;18.4;;;;;;;0.79;74.08203;971.1431;;;;
2020/01/12 05:44:00;;;;;;;24;19.9;;;;;;;0.87;74.18848;971.1594;;;;
2020/01/12 05:46:25;;;;;;;21.4;17.5;;;;;;;0.82;73.61914;971.1563;;;;
2020/01/12 05:48:50;;;;;;;22.4;18.5;;;;;;;0.65;74.95215;971.1417;;;;
2020/01/12 05:51:15;;;;;;;19.8;16.6;;;;;;;0.62;74.75195;971.1365;;;;
2020/01/12 05:53:40;;;;;;;21.1;17;;;;;;;0.65;74.18359;971.1289;;;;
2020/01/12 05:56:05;;;;;;;20.2;17.4;;;;;;;0.66;73.54395;971.1;;;;
2020/01/12 05:58:30;;;;;;;21.6;18.3;;;;;;;0.78;73.02734;971.1337;;;;
2020/01/12 06:00:55;;;;;;;19.5;16.5;;;;;;;0.74;73.20313;971.1381;;;;
2020/01/12 06:03:20;;;;;;;20.2;16.7;;;;;;;0.66;73.67188;971.1096;;;;
2020/01/12 06:05:45;;;;;;;20;16.8;;;;;;;0.75;73.92578;971.1342;;;;
2020/01/12 06:08:10;;;;;;;20.8;16.8;;;;;;;0.69;73.84961;971.1539;;;;
2020/01/12 06:10:35;;;;;;;20;16.4;;;;;;;0.54;73.45508;971.1344;;;;
2020/01/12 06:13:00;;;;;;;20.4;17;;;;;;;0.42;73.93945;971.0461;;;;
2020/01/12 06:15:25;;;;;;;19.2;16.1;;;;;;;0.46;73.59082;971.0305;;;;
2020/01/12 06:17:50;;;;;;;20.3;17.1;;;;;;;0.63;72.80664;971.05;;;;
2020/01/12 06:20:15;;;;;;;19.4;16.2;;;;;;;0.57;73.36816;971.0002;;;;
2020/01/12 06:22:40;;;;;;;20.6;16.4;;;;;;;0.53;73.62598;971.0424;;;;
2020/01/12 06:25:05;;;;;;;21.2;17.6;;;;;;;0.53;73.5459;971.0536;;;;
2020/01/12 06:27:31;;;;;;;21.7;16.9;;;;;;;0.6;72.98535;971.0505;;;;
2020/01/12 06:29:56;;;;;;;21.2;17.7;;;;;;;0.59;73.59082;971.0394;;;;
2020/01/12 06:32:21;;;;;;;19.8;16.9;;;;;;;0.59;73.34961;971.0594;;;;
2020/01/12 06:34:46;;;;;;;19.5;16.5;;;;;;;0.48;73.57031;971.0608;;;;
2020/01/12 06:37:11;;;;;;;18.8;16.1;;;;;;;0.46;73.37305;970.9849;;;;
2020/01/12 06:39:36;;;;;;;19.7;16.1;;;;;;;0.4;73.63672;971.0145;;;;
2020/01/12 06:42:01;;;;;;;19;15.9;;;;;;;0.45;73.57715;970.9908;;;;
2020/01/12 06:44:26;;;;;;;21.1;17.6;;;;;;;0.49;73.49219;970.9725;;;;
2020/01/12 06:46:51;;;;;;;19.8;16.6;;;;;;;0.41;73.15918;970.9568;;;;
2020/01/12 06:49:16;;;;;;;20;17.1;;;;;;;0.53;72.80176;970.916;;;;
2020/01/12 06:51:41;;;;;;;21.3;17.8;;;;;;;0.44;73.64453;970.8981;;;;
2020/01/12 06:54:06;;;;;;;20.9;17.3;;;;;;;0.35;73.94922;970.8679;;;;
2020/01/12 06:56:31;;;;;;;19.2;16.2;;;;;;;0.32;74.32129;970.9116;;;;
2020/01/12 06:58:57;;;;;;;20.6;16.1;;;;;;;0.29;74.13379;970.904;;;;
2020/01/12 07:03:47;;;;;;;17.4;15.2;;;;;;;0.33;73.71582;970.918;;;;
2020/01/12 07:06:12;;;;;;;19.5;16.5;;;;;;;0.2;73.79785;970.9001;;;;
2020/01/12 07:08:37;;;;;;;19.6;16.5;;;;;;;0.26;73.71582;970.9277;;;;
2020/01/12 07:11:02;;;;;;;19.1;15.3;;;;;;;0.3;73.66406;970.9264;;;;
2020/01/12 07:13:27;;;;;;;19.6;16.9;;;;;;;0.3;73.9502;970.9031;;;;
2020/01/12 07:15:52;;;;;;;19.6;16.5;;;;;;;0.37;73.46094;970.9222;;;;
2020/01/12 07:18:17;;;;;;;18.3;15.8;;;;;;;0.31;73.66699;970.902;;;;
2020/01/12 07:20:42;;;;;;;17.6;15.5;;;;;;;0.32;73.97754;970.9684;;;;
2020/01/12 07:23:07;;;;;;;17.5;14.8;;;;;;;0.39;73.93262;970.9138;;;;
2020/01/12 07:25:32;;;;;;;17.3;15.4;;;;;;;0.35;73.2959;970.8583;;;;
2020/01/12 07:27:57;;;;;;;17.1;15.2;;;;;;;0.63;72.3252;970.8867;;;;
2020/01/12 07:30:23;;;;;;;17.4;15.4;;;;;;;0.94;70.79688;970.8439;;;;
2020/01/12 07:32:48;;;;;;;17.3;14.8;;;;;;;1.1;70.42188;970.8716;;;;
2020/01/12 07:35:13;;;;;;;18.9;16.5;;;;;;;1.79;67.55371;970.8647;;;;
2020/01/12 07:37:38;;;;;;;18.1;15.5;;;;;;;2.46;65.58984;970.8933;;;;
2020/01/12 07:40:03;;;;;;;15;13.4;;;;;;;2.82;64.125;970.8833;;;;
2020/01/12 07:42:28;;;;;;;18.3;15.7;;;;;;;2.67;64.5166;970.8649;;;;
2020/01/12 07:44:54;;;;;;;17.9;15.2;;;;;;;2.86;64.01563;970.884;;;;
2020/01/12 07:47:19;;;;;;;17.4;14.6;;;;;;;3.45;62.04199;970.9576;;;;
2020/01/12 07:49:44;;;;;;;16.6;13.7;;;;;;;3.23;62.43652;970.9083;;;;
2020/01/12 07:52:09;;;;;;;15;12.8;;;;;;;3.07;63.76074;970.9601;;;;
2020/01/12 07:54:34;;;;;;;15.9;13.8;;;;;;;3.01;63.80859;971.0027;;;;
2020/01/12 07:56:59;;;;;;;15;13.4;;;;;;;2.89;64.49219;971.0375;;;;
2020/01/12 07:59:25;;;;;;;16.9;14.2;;;;;;;2.35;66.06641;971.081;;;;
2020/01/12 08:01:50;;;;;;;15.8;14.1;;;;;;;2.23;67.15137;971.0963;;;;
2020/01/12 08:04:15;;;;;;;16.2;14.2;;;;;;;2.09;67.73926;971.1567;;;;
2020/01/12 08:06:40;;;;;;;16.8;14.1;;;;;;;2.14;67.76953;971.1824;;;;
2020/01/12 08:09:05;;;;;;;16.6;14;;;;;;;2.18;67.28027;971.1448;;;;
2020/01/12 08:11:30;;;;;;;15.7;14;;;;;;;2.31;67.25391;971.1252;;;;
2020/01/12 08:13:55;;;;;;;15.4;13.8;;;;;;;2.56;72.60938;971.1556;;;;
2020/01/12 08:16:20;;;;;;;17.5;14.8;;;;;;;2.76;67.65039;971.0941;;;;
2020/01/12 08:18:45;;;;;;;17.9;14.2;;;;;;;2.78;66.93848;971.1533;;;;
2020/01/12 08:21:11;;;;;;;17.6;14.6;;;;;;;2.96;65.89648;971.1694;;;;
2020/01/12 08:23:36;;;;;;;16.5;13.8;;;;;;;2.91;66.15332;971.2349;;;;
2020/01/12 08:27:25;;;;;;;15.7;13.8;;;;;;;2.58;67.55078;971.2731;;;;
2020/01/12 08:29:49;;;;;;;17.6;15.7;;;;;;;2.64;67.02148;971.2933;;;;
2020/01/12 08:32:15;;;;;;;17.2;14.9;;;;;;;2.35;68.15918;971.2961;;;;
2020/01/12 08:34:40;;;;;;;16;13.7;;;;;;;2.23;69.3125;971.3619;;;;
2020/01/12 08:37:05;;;;;;;17.7;14.5;;;;;;;2.02;70.73828;971.3741;;;;
2020/01/12 08:39:30;;;;;;;18.8;14.5;;;;;;;2;71.06738;971.4299;;;;
2020/01/12 08:41:55;;;;;;;17;14.6;;;;;;;1.87;71.80273;971.4448;;;;
2020/01/12 08:44:20;;;;;;;18.1;14.9;;;;;;;1.83;72.2207;971.4922;;;;
2020/01/12 08:46:45;;;;;;;18.6;15.1;;;;;;;1.93;72.64063;971.4951;;;;
2020/01/12 08:49:10;;;;;;;92.4;21.7;;;;;;;1.8;75.01758;971.455;;;;
2020/01/12 08:51:35;;;;;;;22.4;18;;;;;;;1.69;75.29785;971.4369;;;;
2020/01/12 08:54:00;;;;;;;24.2;17.7;;;;;;;1.74;75.81152;971.3917;;;;
2020/01/12 08:56:26;;;;;;;30.7;19.5;;;;;;;1.66;76.91113;971.4106;;;;
2020/01/12 08:58:51;;;;;;;34.5;20.9;;;;;;;1.73;77.10449;971.3577;;;;
2020/01/12 09:01:16;;;;;;;40.5;22.4;;;;;;;1.74;77.08691;971.3925;;;;
2020/01/12 09:03:41;;;;;;;35.5;21.9;;;;;;;1.67;77.50977;971.4291;;;;
2020/01/12 09:06:06;;;;;;;31.3;22;;;;;;;1.72;77.74707;971.4372;;;;
2020/01/12 09:08:31;;;;;;;33.1;21.7;;;;;;;1.89;77.96191;971.4094;;;;
2020/01/12 09:10:56;;;;;;;34.7;22.7;;;;;;;1.94;77.33984;971.4308;;;;
2020/01/12 09:13:21;;;;;;;40.3;23.3;;;;;;;1.91;77.57617;971.4194;;;;
2020/01/12 09:15:46;;;;;;;60.3;25.6;;;;;;;1.99;77.4873;971.4267;;;;
2020/01/12 09:18:11;;;;;;;38.2;28.3;;;;;;;1.96;77.80469;971.4642;;;;
2020/01/12 09:20:36;;;;;;;42.2;25.3;;;;;;;1.97;77.76953;971.4984;;;;
2020/01/12 09:23:01;;;;;;;36.6;28.5;;;;;;;1.92;78.35938;971.5748;;;;
2020/01/12 09:25:27;;;;;;;29.6;22.6;;;;;;;1.96;77.97461;971.6103;;;;
2020/01/12 09:27:52;;;;;;;29.2;22.6;;;;;;;2.1;77.7041;971.6269;;;;
2020/01/12 09:30:17;;;;;;;49.2;27.1;;;;;;;1.94;77.87988;971.6755;;;;
2020/01/12 09:32:42;;;;;;;32.7;24.1;;;;;;;2.1;77.90918;971.684;;;;
2020/01/12 09:35:07;;;;;;;29.1;23.3;;;;;;;2.13;78.06445;971.6577;;;;
2020/01/12 09:37:32;;;;;;;29.8;21.4;;;;;;;2.23;77.94434;971.646;;;;
2020/01/12 09:39:57;;;;;;;27.6;22;;;;;;;2.35;77.64355;971.6575;;;;
2020/01/12 09:42:22;;;;;;;28.8;21.9;;;;;;;2.38;77.16699;971.7219;;;;
2020/01/12 09:44:47;;;;;;;53;23.3;;;;;;;2.07;77.91406;971.7793;;;;
2020/01/12 09:47:12;;;;;;;42;25.2;;;;;;;1.99;78.78516;971.8079;;;;
2020/01/12 09:52:03;;;;;;;43.1;26;;;;;;;1.93;79.60254;971.8729;;;;
2020/01/12 09:54:28;;;;;;;35.8;25.2;;;;;;;1.94;79.18945;971.8592;;;;
2020/01/12 09:56:53;;;;;;;30.8;24.3;;;;;;;1.89;79.71973;971.8792;;;;
2020/01/12 09:59:18;;;;;;;32;24;;;;;;;1.94;79.55664;971.913;;;;
2020/01/12 10:01:43;;;;;;;36.1;24.6;;;;;;;1.91;80.05762;971.9432;;;;
2020/01/12 10:04:09;;;;;;;34.3;25.1;;;;;;;1.93;79.84375;971.9355;;;;
2020/01/12 10:08:59;;;;;;;35.3;24.6;;;;;;;1.94;80.17676;971.8969;;;;
2020/01/12 10:11:24;;;;;;;37.4;28.1;;;;;;;1.83;80.65137;971.9116;;;;
2020/01/12 10:13:49;;;;;;;35.5;26.9;;;;;;;1.9;80.51465;971.9056;;;;
2020/01/12 10:16:14;;;;;;;42;27.6;;;;;;;2;80.32715;971.868;;;;
2020/01/12 10:18:39;;;;;;;36.4;26.2;;;;;;;2.09;79.96387;971.8758;;;;
2020/01/12 10:21:14;;;;;;;40.5;27.4;;;;;;;2.05;80.11719;971.8309;;;;
2020/01/12 10:23:30;;;;;;;36.7;27.2;;;;;;;2.07;80.65039;971.8475;;;;
2020/01/12 10:25:55;;;;;;;40.3;28.2;;;;;;;2.03;80.63184;971.8192;;;;
2020/01/12 10:28:20;;;;;;;38.5;26.8;;;;;;;2.23;80.3125;971.7994;;;;
2020/01/12 10:30:45;;;;;;;36;27.4;;;;;;;2.27;80.28516;971.7891;;;;
2020/01/12 10:33:10;;;;;;;39;27.8;;;;;;;2.19;80.53418;971.7736;;;;
2020/01/12 10:35:35;;;;;;;39.3;27.4;;;;;;;2.27;80.41309;971.7681;;;;
2020/01/12 10:38:01;;;;;;;34.9;26.5;;;;;;;2.35;80.3457;971.8164;;;;
2020/01/12 10:40:26;;;;;;;39.3;25.8;;;;;;;2.36;80.13086;971.7593;;;;
2020/01/12 10:42:51;;;;;;;35.7;25.8;;;;;;;2.35;80.50879;971.6871;;;;
2020/01/12 10:45:16;;;;;;;37;28.2;;;;;;;2.41;80.3457;971.6646;;;;
2020/01/12 10:47:41;;;;;;;50.7;28.9;;;;;;;2.35;80.95703;971.5941;;;;
2020/01/12 10:50:06;;;;;;;38.9;27.6;;;;;;;2.37;81.19043;971.5801;;;;
2020/01/12 10:52:31;;;;;;;46.5;29.8;;;;;;;2.37;81.46582;971.5223;;;;
2020/01/12 10:54:57;;;;;;;58.3;33.1;;;;;;;2.37;81.48926;971.4991;;;;
2020/01/12 10:57:22;;;;;;;62.7;35;;;;;;;2.26;82.20313;971.5125;;;;
2020/01/12 10:59:47;;;;;;;61.2;34.7;;;;;;;2.25;82.4082;971.4781;;;;
2020/01/12 11:02:12;;;;;;;52.9;33.6;;;;;;;2.4;81.97754;971.4102;;;;
2020/01/12 11:04:37;;;;;;;45.4;31;;;;;;;2.3;82.5332;971.3873;;;;
2020/01/12 11:07:02;;;;;;;46.5;31.1;;;;;;;2.33;82.87207;971.2967;;;;
2020/01/12 11:09:28;;;;;;;47;30.7;;;;;;;2.46;82.64453;971.3261;;;;
2020/01/12 11:11:53;;;;;;;44.7;30.5;;;;;;;2.53;82.51074;971.323;;;;
2020/01/12 11:14:18;;;;;;;54.6;33.6;;;;;;;2.58;82.35742;971.3044;;;;
2020/01/12 11:16:43;;;;;;;45.1;30.4;;;;;;;2.73;81.68457;971.2924;;;;
2020/01/12 11:19:08;;;;;;;47.6;31.1;;;;;;;2.76;81.72656;971.282;;;;
2020/01/12 11:21:33;;;;;;;47.5;31.9;;;;;;;2.71;81.95801;971.2383;;;;
2020/01/12 11:23:58;;;;;;;48.1;32;;;;;;;2.84;81.70508;971.2274;;;;
2020/01/12 11:26:24;;;;;;;53;34.4;;;;;;;2.83;81.73926;971.1872;;;;
2020/01/12 11:28:49;;;;;;;44.6;30.7;;;;;;;2.88;81.19531;971.183;;;;
2020/01/12 11:31:14;;;;;;;56.4;34.3;;;;;;;2.78;81.99414;971.1171;;;;
2020/01/12 11:33:39;;;;;;;48.2;32.1;;;;;;;2.91;81.71875;971.0844;;;;
2020/01/12 11:36:04;;;;;;;50.5;33.2;;;;;;;2.9;81.61523;971.0686;;;;
2020/01/12 11:38:29;;;;;;;48.5;32.9;;;;;;;2.93;81.71094;971.0761;;;;
2020/01/12 11:40:54;;;;;;;46.8;31.9;;;;;;;3.01;81.52051;971.0831;;;;
2020/01/12 11:43:20;;;;;;;46.6;32.1;;;;;;;3.08;81.10547;971.0984;;;;
2020/01/12 11:45:45;;;;;;;47.5;32.1;;;;;;;3.11;81.02051;971.0977;;;;
2020/01/12 11:48:10;;;;;;;46.1;31;;;;;;;3.14;80.35742;971.0703;;;;
2020/01/12 11:50:35;;;;;;;46.9;32.7;;;;;;;3.02;80.93457;971.032;;;;
2020/01/12 11:53:00;;;;;;;47.6;31.3;;;;;;;3.15;80.54492;970.9648;;;;
2020/01/12 11:55:26;;;;;;;55.7;35.3;;;;;;;3.14;80.71484;970.9079;;;;
2020/01/12 11:57:51;;;;;;;52.4;34.9;;;;;;;3.09;80.93652;970.8803;;;;
2020/01/12 12:00:16;;;;;;;53.4;34.1;;;;;;;3.05;80.88379;970.8776;;;;
2020/01/12 12:02:41;;;;;;;47.9;33.3;;;;;;;3.09;81.06445;970.8352;;;;
2020/01/12 12:05:06;;;;;;;47.2;32.4;;;;;;;3.12;80.38867;970.825;;;;
2020/01/12 12:07:31;;;;;;;51.4;34.6;;;;;;;2.98;80.94922;970.7617;;;;
2020/01/12 12:09:57;;;;;;;48.9;33.4;;;;;;;3.06;80.88574;970.8245;;;;
2020/01/12 12:12:22;;;;;;;45.4;32;;;;;;;3.14;80.70508;970.8226;;;;
2020/01/12 12:14:47;;;;;;;46.6;32.6;;;;;;;3.18;80.37695;970.8176;;;;
2020/01/12 12:17:12;;;;;;;47.6;33.9;;;;;;;3.17;80.10938;970.8127;;;;
2020/01/12 12:19:37;;;;;;;51.5;34.7;;;;;;;3.11;80.7207;970.7158;;;;
2020/01/12 12:22:03;;;;;;;56.6;38.5;;;;;;;3.35;80.14355;970.6788;;;;
2020/01/12 12:24:28;;;;;;;46.8;33;;;;;;;3.36;80.22754;970.7176;;;;
2020/01/12 12:26:53;;;;;;;45;31.8;;;;;;;3.56;79.13477;970.6741;;;;
2020/01/12 12:29:18;;;;;;;45.4;32.6;;;;;;;3.52;79.3916;970.6638;;;;
2020/01/12 12:31:43;;;;;;;45.6;31.9;;;;;;;3.62;78.99609;970.6816;;;;
2020/01/12 12:34:08;;;;;;;41.9;30.5;;;;;;;3.66;78.50684;970.6597;;;;
2020/01/12 12:36:33;;;;;;;46.8;32.7;;;;;;;3.67;78.75195;970.5844;;;;
2020/01/12 12:38:58;;;;;;;44.7;32.4;;;;;;;3.71;78.44727;970.6284;;;;
2020/01/12 12:41:24;;;;;;;45.6;33;;;;;;;3.69;78.39746;970.5759;;;;
2020/01/12 12:43:49;;;;;;;44.6;33.1;;;;;;;3.81;77.91309;970.5378;;;;
2020/01/12 12:46:14;;;;;;;47.4;34.3;;;;;;;3.87;78.37207;970.4753;;;;
2020/01/12 12:48:39;;;;;;;45.2;32.8;;;;;;;4;77.79785;970.4514;;;;
2020/01/12 12:51:04;;;;;;;47;34;;;;;;;4.04;77.68848;970.373;;;;
2020/01/12 12:53:29;;;;;;;45.5;33.1;;;;;;;4.06;77.41504;970.3502;;;;
2020/01/12 12:55:55;;;;;;;45.9;33.8;;;;;;;3.93;77.69141;970.3342;;;;
2020/01/12 12:58:20;;;;;;;44.2;33;;;;;;;4.12;77.08984;970.3605;;;;
2020/01/12 13:00:45;;;;;;;46.5;34.5;;;;;;;4.08;77.21191;970.3251;;;;
2020/01/12 13:03:10;;;;;;;44.7;34.5;;;;;;;4.21;76.94434;970.3708;;;;
2020/01/12 13:05:35;;;;;;;45.9;33.6;;;;;;;4.17;77.38965;970.3494;;;;
2020/01/12 13:08:00;;;;;;;46.8;34.1;;;;;;;4.22;77.21484;970.3084;;;;
2020/01/12 13:10:25;;;;;;;46.6;35.2;;;;;;;4.22;77.36328;970.3464;;;;
2020/01/12 13:12:51;;;;;;;50.7;36.8;;;;;;;4.2;77.26758;970.3018;;;;
2020/01/12 13:15:16;;;;;;;52.4;37.9;;;;;;;4.21;77.51172;970.3;;;;
2020/01/12 13:17:41;;;;;;;66.6;45.9;;;;;;;4.23;77.30664;970.2947;;;;
2020/01/12 13:20:06;;;;;;;45.8;34.6;;;;;;;4.31;76.98633;970.2889;;;;
2020/01/12 13:22:31;;;;;;;48.4;35;;;;;;;4.31;76.92871;970.247;;;;
2020/01/12 13:24:56;;;;;;;47.1;35;;;;;;;4.28;77.25879;970.1867;;;;
2020/01/12 13:27:22;;;;;;;47;34.3;;;;;;;4.31;77.24023;970.1995;;;;
2020/01/12 13:29:47;;;;;;;49.9;36.6;;;;;;;4.2;77.64844;970.1013;;;;
2020/01/12 13:32:12;;;;;;;46.1;34.5;;;;;;;4.31;77.19434;970.0731;;;;
2020/01/12 13:34:37;;;;;;;47.4;34.9;;;;;;;4.37;77.22852;970.0641;;;;
2020/01/12 13:37:02;;;;;;;48.2;35.6;;;;;;;4.32;77.46289;970.0237;;;;
2020/01/12 13:39:27;;;;;;;48.6;35.9;;;;;;;4.42;77.11133;969.9791;;;;
2020/01/12 13:41:53;;;;;;;48.3;36;;;;;;;4.59;76.72461;969.927;;;;
2020/01/12 13:44:18;;;;;;;47.1;34.7;;;;;;;4.82;75.84277;969.9366;;;;
2020/01/12 13:46:43;;;;;;;46.8;35.5;;;;;;;5.01;75.58594;969.9895;;;;
2020/01/12 13:49:08;;;;;;;45.5;35.1;;;;;;;5.24;74.8291;969.986;;;;
2020/01/12 13:51:33;;;;;;;47.8;36.4;;;;;;;5.41;74.19824;969.9406;;;;
2020/01/12 13:53:58;;;;;;;42;33.7;;;;;;;5.46;73.71973;969.9576;;;;
2020/01/12 13:56:23;;;;;;;42.7;33.9;;;;;;;5.51;73.31152;969.9842;;;;
2020/01/12 13:58:48;;;;;;;39.4;32.8;;;;;;;5.43;73.05664;969.9125;;;;
2020/01/12 14:01:14;;;;;;;39.4;31.7;;;;;;;5.56;72.5791;969.8959;;;;
2020/01/12 14:03:39;;;;;;;41.8;33.6;;;;;;;5.48;72.95996;969.9155;;;;
2020/01/12 14:06:04;;;;;;;42.5;34.3;;;;;;;5.45;73.19727;969.8635;;;;
2020/01/12 14:08:30;;;;;;;40.1;33.1;;;;;;;5.62;72.78711;969.8141;;;;
2020/01/12 14:10:55;;;;;;;39.5;31.8;;;;;;;5.7;72.3252;969.8699;;;;
2020/01/12 14:13:20;;;;;;;41.3;33.6;;;;;;;5.6;72.46973;969.8752;;;;
2020/01/12 14:15:45;;;;;;;37.6;31.3;;;;;;;5.67;72.41211;969.8614;;;;
2020/01/12 14:18:10;;;;;;;37.6;30.9;;;;;;;5.55;72.75;969.8762;;;;